sensor_id;sensor_type;location;lat;lon;timestamp;pressure;altitude;pressure_sealevel;temperature;humidity
71873;BME280;59745;52.924;-2.388;2022-08-11T00:03:04;100129.64;;;25.69;32.70
71873;BME280;59745;52.924;-2.388;2022-08-11T00:05:24;100126.81;;;25.48;32.62
71873;BME280;59745;52.924;-2.388;2022-08-11T00:07:51;100125.92;;;25.61;32.59
71873;BME280;59745;52.924;-2.388;2022-08-11T00:10:17;100125.73;;;25.85;32.00
71873;BME280;59745;52.924;-2.388;2022-08-11T00:12:40;100123.41;;;25.73;32.18
71873;BME280;59745;52.924;-2.388;2022-08-11T00:15:06;100119.32;;;25.71;32.33
71873;BME280;59745;52.924;-2.388;2022-08-11T00:17:33;100115.94;;;25.48;32.23
71873;BME280;59745;52.924;-2.388;2022-08-11T00:20:02;100114.05;;;25.69;31.98
71873;BME280;59745;52.924;-2.388;2022-08-11T00:22:21;100111.98;;;25.70;31.95
71873;BME280;59745;52.924;-2.388;2022-08-11T00:24:45;100112.21;;;25.71;31.74
71873;BME280;59745;52.924;-2.388;2022-08-11T00:27:10;100109.17;;;25.88;31.49
71873;BME280;59745;52.924;-2.388;2022-08-11T00:29:35;100106.08;;;25.95;31.33
71873;BME280;59745;52.924;-2.388;2022-08-11T00:32:03;100106.65;;;26.20;31.06
71873;BME280;59745;52.924;-2.388;2022-08-11T00:34:28;100107.23;;;26.12;31.12
71873;BME280;59745;52.924;-2.388;2022-08-11T00:36:54;100112.00;;;25.98;31.30
71873;BME280;59745;52.924;-2.388;2022-08-11T00:39:19;100108.19;;;26.06;31.29
71873;BME280;59745;52.924;-2.388;2022-08-11T00:41:54;100107.84;;;26.09;31.38
71873;BME280;59745;52.924;-2.388;2022-08-11T00:44:26;100105.84;;;26.27;31.08
71873;BME280;59745;52.924;-2.388;2022-08-11T00:46:41;100105.01;;;26.33;30.98
71873;BME280;59745;52.924;-2.388;2022-08-11T00:49:09;100106.16;;;26.44;30.82
71873;BME280;59745;52.924;-2.388;2022-08-11T00:51:34;100105.46;;;26.27;30.70
71873;BME280;59745;52.924;-2.388;2022-08-11T00:53:58;100101.62;;;26.44;30.79
71873;BME280;59745;52.924;-2.388;2022-08-11T00:56:27;100099.59;;;25.75;31.44
71873;BME280;59745;52.924;-2.388;2022-08-11T01:01:13;100098.56;;;26.47;30.76
71873;BME280;59745;52.924;-2.388;2022-08-11T01:06:05;100093.66;;;26.34;30.64
71873;BME280;59745;52.924;-2.388;2022-08-11T01:08:30;100091.35;;;26.07;31.08
71873;BME280;59745;52.924;-2.388;2022-08-11T01:10:58;100093.24;;;25.42;31.29
71873;BME280;59745;52.924;-2.388;2022-08-11T01:13:17;100095.36;;;26.03;31.24
71873;BME280;59745;52.924;-2.388;2022-08-11T01:15:49;100094.02;;;26.17;31.13
71873;BME280;59745;52.924;-2.388;2022-08-11T01:18:14;100094.74;;;25.94;31.33
71873;BME280;59745;52.924;-2.388;2022-08-11T01:23:03;100091.31;;;26.33;30.94
71873;BME280;59745;52.924;-2.388;2022-08-11T01:30:17;100084.99;;;26.25;30.87
71873;BME280;59745;52.924;-2.388;2022-08-11T01:42:23;100080.66;;;25.66;31.57
71873;BME280;59745;52.924;-2.388;2022-08-11T01:44:55;100078.80;;;25.59;31.69
71873;BME280;59745;52.924;-2.388;2022-08-11T01:47:09;100077.79;;;25.75;31.45
71873;BME280;59745;52.924;-2.388;2022-08-11T01:49:31;100079.41;;;25.97;31.23
71873;BME280;59745;52.924;-2.388;2022-08-11T01:52:07;100080.07;;;26.02;31.08
71873;BME280;59745;52.924;-2.388;2022-08-11T01:54:26;100083.38;;;25.78;31.38
71873;BME280;59745;52.924;-2.388;2022-08-11T01:56:52;100081.19;;;25.54;31.63
71873;BME280;59745;52.924;-2.388;2022-08-11T01:59:13;100080.90;;;25.77;31.35
71873;BME280;59745;52.924;-2.388;2022-08-11T02:01:51;100081.18;;;25.64;31.54
71873;BME280;59745;52.924;-2.388;2022-08-11T02:04:05;100082.91;;;25.62;31.49
71873;BME280;59745;52.924;-2.388;2022-08-11T02:06:29;100086.82;;;26.07;31.38
71873;BME280;59745;52.924;-2.388;2022-08-11T02:08:54;100091.16;;;25.83;31.31
71873;BME280;59745;52.924;-2.388;2022-08-11T02:11:20;100092.77;;;25.98;31.13
71873;BME280;59745;52.924;-2.388;2022-08-11T02:13:43;100097.61;;;26.10;31.02
71873;BME280;59745;52.924;-2.388;2022-08-11T02:16:12;100102.85;;;26.42;30.66
71873;BME280;59745;52.924;-2.388;2022-08-11T02:18:32;100103.24;;;26.39;30.50
71873;BME280;59745;52.924;-2.388;2022-08-11T02:20:55;100101.31;;;26.17;30.44
71873;BME280;59745;52.924;-2.388;2022-08-11T02:23:25;100099.13;;;26.57;29.93
71873;BME280;59745;52.924;-2.388;2022-08-11T02:25:49;100095.26;;;26.65;29.88
71873;BME280;59745;52.924;-2.388;2022-08-11T02:28:16;100096.33;;;26.11;30.18
71873;BME280;59745;52.924;-2.388;2022-08-11T02:30:37;100096.58;;;26.82;30.25
71873;BME280;59745;52.924;-2.388;2022-08-11T02:33:10;100097.02;;;26.69;30.23
71873;BME280;59745;52.924;-2.388;2022-08-11T02:35:27;100095.89;;;26.45;30.21
71873;BME280;59745;52.924;-2.388;2022-08-11T02:37:57;100099.30;;;26.74;29.85
71873;BME280;59745;52.924;-2.388;2022-08-11T02:40:27;100096.49;;;26.90;29.91
71873;BME280;59745;52.924;-2.388;2022-08-11T02:42:49;100096.33;;;26.78;30.05
71873;BME280;59745;52.924;-2.388;2022-08-11T02:45:17;100092.72;;;26.54;30.17
71873;BME280;59745;52.924;-2.388;2022-08-11T02:47:38;100091.92;;;26.62;30.14
71873;BME280;59745;52.924;-2.388;2022-08-11T02:49:59;100088.58;;;26.50;29.97
71873;BME280;59745;52.924;-2.388;2022-08-11T02:52:24;100085.16;;;26.86;29.75
71873;BME280;59745;52.924;-2.388;2022-08-11T02:54:49;100086.48;;;26.41;30.24
71873;BME280;59745;52.924;-2.388;2022-08-11T02:57:15;100085.95;;;26.46;30.29
71873;BME280;59745;52.924;-2.388;2022-08-11T02:59:43;100086.48;;;26.45;30.21
71873;BME280;59745;52.924;-2.388;2022-08-11T03:02:05;100087.75;;;26.15;30.50
71873;BME280;59745;52.924;-2.388;2022-08-11T03:06:52;100088.13;;;26.34;30.64
71873;BME280;59745;52.924;-2.388;2022-08-11T03:09:19;100089.98;;;26.14;30.58
71873;BME280;59745;52.924;-2.388;2022-08-11T03:11:49;100087.99;;;26.07;30.62
71873;BME280;59745;52.924;-2.388;2022-08-11T03:14:13;100083.59;;;26.35;30.26
71873;BME280;59745;52.924;-2.388;2022-08-11T03:16:36;100083.78;;;26.71;30.23
71873;BME280;59745;52.924;-2.388;2022-08-11T03:19:02;100088.41;;;26.35;30.48
71873;BME280;59745;52.924;-2.388;2022-08-11T03:21:22;100087.88;;;26.13;30.68
71873;BME280;59745;52.924;-2.388;2022-08-11T03:23:52;100080.74;;;26.28;30.21
71873;BME280;59745;52.924;-2.388;2022-08-11T03:26:16;100073.64;;;26.45;30.27
71873;BME280;59745;52.924;-2.388;2022-08-11T03:28:41;100071.20;;;26.00;30.48
71873;BME280;59745;52.924;-2.388;2022-08-11T03:31:14;100072.86;;;26.06;30.72
71873;BME280;59745;52.924;-2.388;2022-08-11T03:33:29;100075.18;;;25.85;31.02
71873;BME280;59745;52.924;-2.388;2022-08-11T03:36:03;100075.66;;;26.00;31.12
71873;BME280;59745;52.924;-2.388;2022-08-11T03:38:21;100076.26;;;25.17;32.12
71873;BME280;59745;52.924;-2.388;2022-08-11T03:40:53;100073.74;;;25.79;31.95
71873;BME280;59745;52.924;-2.388;2022-08-11T03:43:16;100077.52;;;25.31;31.94
71873;BME280;59745;52.924;-2.388;2022-08-11T03:45:35;100072.76;;;25.27;32.05
71873;BME280;59745;52.924;-2.388;2022-08-11T03:48:06;100072.87;;;25.65;32.15
71873;BME280;59745;52.924;-2.388;2022-08-11T03:50:31;100072.16;;;25.48;32.38
71873;BME280;59745;52.924;-2.388;2022-08-11T03:52:52;100070.30;;;25.31;32.29
71873;BME280;59745;52.924;-2.388;2022-08-11T03:55:22;100068.38;;;25.12;32.55
71873;BME280;59745;52.924;-2.388;2022-08-11T04:00:21;100071.93;;;25.03;32.33
71873;BME280;59745;52.924;-2.388;2022-08-11T04:02:40;100072.06;;;25.05;32.35
71873;BME280;59745;52.924;-2.388;2022-08-11T04:14:41;100076.48;;;25.51;31.64
71873;BME280;59745;52.924;-2.388;2022-08-11T04:24:26;100069.13;;;26.03;31.00
71873;BME280;59745;52.924;-2.388;2022-08-11T04:26:56;100068.73;;;26.07;30.91
71873;BME280;59745;52.924;-2.388;2022-08-11T04:29:16;100070.12;;;25.80;30.95
71873;BME280;59745;52.924;-2.388;2022-08-11T04:31:36;100069.08;;;26.10;30.93
71873;BME280;59745;52.924;-2.388;2022-08-11T04:34:07;100067.85;;;25.85;31.25
71873;BME280;59745;52.924;-2.388;2022-08-11T04:36:40;100070.44;;;25.90;31.18
71873;BME280;59745;52.924;-2.388;2022-08-11T04:39:00;100072.25;;;25.88;31.19
71873;BME280;59745;52.924;-2.388;2022-08-11T04:41:27;100069.87;;;25.90;31.10
71873;BME280;59745;52.924;-2.388;2022-08-11T04:43:53;100066.51;;;25.61;31.37
71873;BME280;59745;52.924;-2.388;2022-08-11T04:48:42;100063.78;;;25.61;31.39
71873;BME280;59745;52.924;-2.388;2022-08-11T04:51:05;100064.89;;;25.62;31.32
71873;BME280;59745;52.924;-2.388;2022-08-11T04:53:33;100062.75;;;25.72;31.27
71873;BME280;59745;52.924;-2.388;2022-08-11T04:56:01;100062.76;;;25.48;31.62
71873;BME280;59745;52.924;-2.388;2022-08-11T04:58:16;100067.73;;;25.53;31.55
71873;BME280;59745;52.924;-2.388;2022-08-11T05:00:39;100070.68;;;25.61;31.36
71873;BME280;59745;52.924;-2.388;2022-08-11T05:05:30;100066.52;;;25.57;31.37
71873;BME280;59745;52.924;-2.388;2022-08-11T05:10:20;100066.81;;;25.77;31.09
71873;BME280;59745;52.924;-2.388;2022-08-11T05:12:44;100067.65;;;25.52;31.25
71873;BME280;59745;52.924;-2.388;2022-08-11T05:15:04;100068.68;;;25.51;31.35
71873;BME280;59745;52.924;-2.388;2022-08-11T05:17:36;100069.94;;;25.37;31.60
71873;BME280;59745;52.924;-2.388;2022-08-11T05:19:53;100065.85;;;25.62;31.48
71873;BME280;59745;52.924;-2.388;2022-08-11T05:22:19;100070.24;;;25.14;31.72
71873;BME280;59745;52.924;-2.388;2022-08-11T05:24:46;100072.50;;;25.24;31.73
71873;BME280;59745;52.924;-2.388;2022-08-11T05:27:11;100073.65;;;25.06;31.94
71873;BME280;59745;52.924;-2.388;2022-08-11T05:29:41;100075.26;;;25.50;31.93
71873;BME280;59745;52.924;-2.388;2022-08-11T05:31:59;100076.93;;;24.99;31.97
71873;BME280;59745;52.924;-2.388;2022-08-11T05:34:27;100079.49;;;25.45;32.02
71873;BME280;59745;52.924;-2.388;2022-08-11T05:36:52;100080.55;;;24.98;32.10
71873;BME280;59745;52.924;-2.388;2022-08-11T05:39:16;100079.28;;;25.44;32.22
71873;BME280;59745;52.924;-2.388;2022-08-11T05:41:40;100081.78;;;25.27;32.09
71873;BME280;59745;52.924;-2.388;2022-08-11T05:44:04;100085.45;;;25.12;32.04
71873;BME280;59745;52.924;-2.388;2022-08-11T05:46:37;100085.55;;;25.14;32.23
71873;BME280;59745;52.924;-2.388;2022-08-11T05:48:54;100082.93;;;25.57;31.80
71873;BME280;59745;52.924;-2.388;2022-08-11T05:51:20;100083.47;;;25.46;31.85
71873;BME280;59745;52.924;-2.388;2022-08-11T05:53:48;100074.60;;;25.68;31.50
71873;BME280;59745;52.924;-2.388;2022-08-11T05:56:09;100075.99;;;25.88;31.62
71873;BME280;59745;52.924;-2.388;2022-08-11T05:58:37;100076.48;;;25.96;31.28
71873;BME280;59745;52.924;-2.388;2022-08-11T06:01:00;100078.98;;;26.30;31.05
71873;BME280;59745;52.924;-2.388;2022-08-11T06:03:27;100077.21;;;26.49;30.38
71873;BME280;59745;52.924;-2.388;2022-08-11T06:05:50;100079.67;;;27.11;30.19
71873;BME280;59745;52.924;-2.388;2022-08-11T06:08:15;100076.01;;;27.30;29.58
71873;BME280;59745;52.924;-2.388;2022-08-11T06:10:42;100075.20;;;27.26;29.07
71873;BME280;59745;52.924;-2.388;2022-08-11T06:13:06;100076.01;;;27.61;28.83
71873;BME280;59745;52.924;-2.388;2022-08-11T06:15:32;100076.94;;;27.62;28.80
71873;BME280;59745;52.924;-2.388;2022-08-11T06:17:56;100074.92;;;27.43;28.93
71873;BME280;59745;52.924;-2.388;2022-08-11T06:20:21;100073.06;;;27.88;28.54
71873;BME280;59745;52.924;-2.388;2022-08-11T06:22:54;100072.15;;;28.05;28.47
71873;BME280;59745;52.924;-2.388;2022-08-11T06:25:11;100075.98;;;27.75;28.54
71873;BME280;59745;52.924;-2.388;2022-08-11T06:27:37;100074.83;;;28.33;27.75
71873;BME280;59745;52.924;-2.388;2022-08-11T06:30:03;100072.76;;;28.51;27.72
71873;BME280;59745;52.924;-2.388;2022-08-11T06:32:27;100070.12;;;28.58;27.59
71873;BME280;59745;52.924;-2.388;2022-08-11T06:35:01;100071.22;;;28.20;27.63
71873;BME280;59745;52.924;-2.388;2022-08-11T06:37:22;100077.00;;;28.67;27.75
71873;BME280;59745;52.924;-2.388;2022-08-11T06:39:46;100076.05;;;28.83;27.48
71873;BME280;59745;52.924;-2.388;2022-08-11T06:42:09;100079.73;;;29.04;26.96
71873;BME280;59745;52.924;-2.388;2022-08-11T06:44:38;100075.64;;;29.62;26.75
71873;BME280;59745;52.924;-2.388;2022-08-11T06:47:04;100079.51;;;29.69;25.53
71873;BME280;59745;52.924;-2.388;2022-08-11T06:49:30;100080.32;;;30.01;25.63
71873;BME280;59745;52.924;-2.388;2022-08-11T06:51:47;100082.68;;;29.80;25.40
71873;BME280;59745;52.924;-2.388;2022-08-11T06:54:12;100082.69;;;29.77;25.39
71873;BME280;59745;52.924;-2.388;2022-08-11T06:56:37;100079.91;;;29.88;25.47
71873;BME280;59745;52.924;-2.388;2022-08-11T06:59:02;100084.31;;;29.84;25.89
71873;BME280;59745;52.924;-2.388;2022-08-11T07:01:38;100085.12;;;30.09;25.60
71873;BME280;59745;52.924;-2.388;2022-08-11T07:03:58;100079.37;;;30.69;24.73
71873;BME280;59745;52.924;-2.388;2022-08-11T07:06:27;100077.57;;;31.07;24.39
71873;BME280;59745;52.924;-2.388;2022-08-11T07:11:28;100077.95;;;31.00;24.25
71873;BME280;59745;52.924;-2.388;2022-08-11T07:13:37;100078.60;;;31.50;24.11
71873;BME280;59745;52.924;-2.388;2022-08-11T07:16:01;100078.70;;;31.53;23.47
71873;BME280;59745;52.924;-2.388;2022-08-11T07:18:28;100074.65;;;31.64;23.77
71873;BME280;59745;52.924;-2.388;2022-08-11T07:20:54;100072.77;;;31.74;23.93
71873;BME280;59745;52.924;-2.388;2022-08-11T07:23:17;100073.49;;;32.05;23.10
71873;BME280;59745;52.924;-2.388;2022-08-11T07:25:46;100072.01;;;32.61;22.42
71873;BME280;59745;52.924;-2.388;2022-08-11T07:28:11;100074.68;;;32.79;21.97
71873;BME280;59745;52.924;-2.388;2022-08-11T07:30:39;100076.12;;;33.04;22.14
71873;BME280;59745;52.924;-2.388;2022-08-11T07:33:01;100076.82;;;33.13;22.10
71873;BME280;59745;52.924;-2.388;2022-08-11T07:35:32;100075.40;;;33.30;21.51
71873;BME280;59745;52.924;-2.388;2022-08-11T07:37:56;100074.23;;;33.11;22.16
71873;BME280;59745;52.924;-2.388;2022-08-11T07:40:20;100073.94;;;33.84;22.09
71873;BME280;59745;52.924;-2.388;2022-08-11T07:42:44;100077.53;;;33.39;21.55
71873;BME280;59745;52.924;-2.388;2022-08-11T07:45:10;100075.82;;;34.12;20.97
71873;BME280;59745;52.924;-2.388;2022-08-11T07:47:36;100074.81;;;34.35;20.90
71873;BME280;59745;52.924;-2.388;2022-08-11T07:50:01;100076.56;;;34.22;20.92
71873;BME280;59745;52.924;-2.388;2022-08-11T07:52:29;100075.30;;;34.14;20.98
71873;BME280;59745;52.924;-2.388;2022-08-11T07:54:54;100072.82;;;34.39;20.61
71873;BME280;59745;52.924;-2.388;2022-08-11T07:57:19;100077.28;;;33.95;20.28
71873;BME280;59745;52.924;-2.388;2022-08-11T07:59:44;100077.75;;;34.02;20.29
71873;BME280;59745;52.924;-2.388;2022-08-11T08:02:11;100080.79;;;33.39;21.02
71873;BME280;59745;52.924;-2.388;2022-08-11T08:04:36;100081.60;;;34.33;20.34
71873;BME280;59745;52.924;-2.388;2022-08-11T08:07:03;100080.17;;;34.55;20.61
71873;BME280;59745;52.924;-2.388;2022-08-11T08:09:33;100078.63;;;34.26;20.31
71873;BME280;59745;52.924;-2.388;2022-08-11T08:11:55;100080.27;;;34.63;20.33
71873;BME280;59745;52.924;-2.388;2022-08-11T08:14:20;100084.40;;;35.17;20.03
71873;BME280;59745;52.924;-2.388;2022-08-11T08:16:46;100082.10;;;35.49;19.53
71873;BME280;59745;52.924;-2.388;2022-08-11T08:19:11;100078.66;;;36.04;19.47
71873;BME280;59745;52.924;-2.388;2022-08-11T08:21:38;100080.33;;;35.86;20.00
71873;BME280;59745;52.924;-2.388;2022-08-11T08:24:03;100078.40;;;36.31;19.06
71873;BME280;59745;52.924;-2.388;2022-08-11T08:26:28;100076.10;;;36.23;19.35
71873;BME280;59745;52.924;-2.388;2022-08-11T08:28:56;100076.59;;;36.81;17.88
71873;BME280;59745;52.924;-2.388;2022-08-11T08:31:20;100075.80;;;37.28;17.58
71873;BME280;59745;52.924;-2.388;2022-08-11T08:33:46;100076.59;;;37.46;16.71
71873;BME280;59745;52.924;-2.388;2022-08-11T08:36:11;100074.94;;;37.65;17.53
71873;BME280;59745;52.924;-2.388;2022-08-11T08:38:39;100075.43;;;37.15;18.51
71873;BME280;59745;52.924;-2.388;2022-08-11T08:41:03;100072.86;;;37.73;19.01
71873;BME280;59745;52.924;-2.388;2022-08-11T08:43:30;100073.16;;;38.21;18.32
71873;BME280;59745;52.924;-2.388;2022-08-11T08:45:55;100071.92;;;38.57;18.50
71873;BME280;59745;52.924;-2.388;2022-08-11T08:48:23;100074.27;;;39.20;17.22
71873;BME280;59745;52.924;-2.388;2022-08-11T08:50:50;100077.63;;;38.99;16.81
71873;BME280;59745;52.924;-2.388;2022-08-11T08:53:12;100073.68;;;39.43;16.44
71873;BME280;59745;52.924;-2.388;2022-08-11T08:55:38;100075.98;;;40.00;15.87
71873;BME280;59745;52.924;-2.388;2022-08-11T08:58:03;100073.56;;;40.11;15.75
71873;BME280;59745;52.924;-2.388;2022-08-11T09:00:37;100074.34;;;40.11;15.33
71873;BME280;59745;52.924;-2.388;2022-08-11T09:02:55;100075.87;;;40.00;16.05
71873;BME280;59745;52.924;-2.388;2022-08-11T09:05:20;100071.70;;;40.16;17.50
71873;BME280;59745;52.924;-2.388;2022-08-11T09:07:46;100063.02;;;39.49;15.63
71873;BME280;59745;52.924;-2.388;2022-08-11T09:10:13;100059.83;;;39.28;16.37
71873;BME280;59745;52.924;-2.388;2022-08-11T09:12:39;100059.27;;;38.78;16.12
71873;BME280;59745;52.924;-2.388;2022-08-11T09:15:04;100060.05;;;38.96;16.45
71873;BME280;59745;52.924;-2.388;2022-08-11T09:17:33;100056.47;;;39.50;15.86
71873;BME280;59745;52.924;-2.388;2022-08-11T09:19:57;100051.96;;;39.06;16.68
71873;BME280;59745;52.924;-2.388;2022-08-11T09:22:21;100054.16;;;39.24;16.39
71873;BME280;59745;52.924;-2.388;2022-08-11T09:24:48;100056.08;;;39.29;15.88
71873;BME280;59745;52.924;-2.388;2022-08-11T09:27:12;100057.75;;;39.13;15.57
71873;BME280;59745;52.924;-2.388;2022-08-11T09:29:37;100056.72;;;39.10;16.05
71873;BME280;59745;52.924;-2.388;2022-08-11T09:32:03;100055.04;;;39.16;16.86
71873;BME280;59745;52.924;-2.388;2022-08-11T09:34:29;100054.91;;;39.15;15.52
71873;BME280;59745;52.924;-2.388;2022-08-11T09:36:55;100059.53;;;38.42;15.39
71873;BME280;59745;52.924;-2.388;2022-08-11T09:39:20;100057.00;;;38.45;15.91
71873;BME280;59745;52.924;-2.388;2022-08-11T09:41:46;100054.87;;;38.39;16.87
71873;BME280;59745;52.924;-2.388;2022-08-11T09:44:12;100054.03;;;38.90;17.09
71873;BME280;59745;52.924;-2.388;2022-08-11T09:46:37;100055.12;;;38.90;17.76
71873;BME280;59745;52.924;-2.388;2022-08-11T09:49:03;100054.87;;;39.28;14.93
71873;BME280;59745;52.924;-2.388;2022-08-11T09:51:30;100055.27;;;39.62;15.23
71873;BME280;59745;52.924;-2.388;2022-08-11T09:53:55;100053.99;;;39.54;15.99
71873;BME280;59745;52.924;-2.388;2022-08-11T09:56:22;100052.13;;;39.21;15.25
71873;BME280;59745;52.924;-2.388;2022-08-11T09:58:47;100052.60;;;39.87;15.57
71873;BME280;59745;52.924;-2.388;2022-08-11T10:01:12;100049.65;;;39.29;14.79
71873;BME280;59745;52.924;-2.388;2022-08-11T10:03:41;100048.14;;;38.53;15.02
71873;BME280;59745;52.924;-2.388;2022-08-11T10:06:04;100045.74;;;37.52;15.57
71873;BME280;59745;52.924;-2.388;2022-08-11T10:08:29;100041.08;;;37.44;16.21
71873;BME280;59745;52.924;-2.388;2022-08-11T10:10:55;100040.68;;;38.00;16.70
71873;BME280;59745;52.924;-2.388;2022-08-11T10:13:21;100045.71;;;38.22;16.22
71873;BME280;59745;52.924;-2.388;2022-08-11T10:15:47;100039.91;;;38.41;16.01
71873;BME280;59745;52.924;-2.388;2022-08-11T10:18:14;100038.44;;;38.64;15.31
71873;BME280;59745;52.924;-2.388;2022-08-11T10:20:38;100038.89;;;38.26;15.54
71873;BME280;59745;52.924;-2.388;2022-08-11T10:23:04;100040.43;;;38.82;15.13
71873;BME280;59745;52.924;-2.388;2022-08-11T10:25:29;100036.85;;;39.02;16.21
71873;BME280;59745;52.924;-2.388;2022-08-11T10:27:55;100035.19;;;39.31;14.72
71873;BME280;59745;52.924;-2.388;2022-08-11T10:30:23;100031.86;;;40.20;15.23
71873;BME280;59745;52.924;-2.388;2022-08-11T10:32:49;100027.46;;;40.26;14.87
71873;BME280;59745;52.924;-2.388;2022-08-11T10:35:13;100026.16;;;40.41;13.56
71873;BME280;59745;52.924;-2.388;2022-08-11T10:37:39;100025.62;;;40.65;13.68
71873;BME280;59745;52.924;-2.388;2022-08-11T10:40:06;100025.26;;;40.60;12.42
71873;BME280;59745;52.924;-2.388;2022-08-11T10:42:30;100025.09;;;41.11;12.78
71873;BME280;59745;52.924;-2.388;2022-08-11T10:44:57;100019.75;;;41.26;11.16
71873;BME280;59745;52.924;-2.388;2022-08-11T10:47:21;100021.47;;;40.38;11.08
71873;BME280;59745;52.924;-2.388;2022-08-11T10:49:48;100021.95;;;39.64;12.19
71873;BME280;59745;52.924;-2.388;2022-08-11T10:52:12;100019.31;;;40.04;12.33
71873;BME280;59745;52.924;-2.388;2022-08-11T10:54:39;100017.89;;;40.30;12.59
71873;BME280;59745;52.924;-2.388;2022-08-11T10:57:04;100015.37;;;40.37;12.92
71873;BME280;59745;52.924;-2.388;2022-08-11T10:59:32;100016.01;;;39.84;12.00
71873;BME280;59745;52.924;-2.388;2022-08-11T11:01:56;100014.46;;;38.86;12.68
71873;BME280;59745;52.924;-2.388;2022-08-11T11:04:26;100010.74;;;38.87;12.91
71873;BME280;59745;52.924;-2.388;2022-08-11T11:06:55;100007.91;;;39.13;12.83
71873;BME280;59745;52.924;-2.388;2022-08-11T11:09:15;100007.86;;;38.62;12.94
71873;BME280;59745;52.924;-2.388;2022-08-11T11:11:44;100011.28;;;38.22;13.57
71873;BME280;59745;52.924;-2.388;2022-08-11T11:14:04;100012.34;;;36.77;14.32
71873;BME280;59745;52.924;-2.388;2022-08-11T11:16:30;100008.45;;;37.31;14.99
71873;BME280;59745;52.924;-2.388;2022-08-11T11:18:56;100005.96;;;37.42;14.66
71873;BME280;59745;52.924;-2.388;2022-08-11T11:21:23;100003.94;;;37.81;14.75
71873;BME280;59745;52.924;-2.388;2022-08-11T11:23:54;100002.64;;;37.86;14.61
71873;BME280;59745;52.924;-2.388;2022-08-11T11:26:24;99998.48;;;38.13;14.70
71873;BME280;59745;52.924;-2.388;2022-08-11T11:31:12;99997.85;;;38.99;15.63
71873;BME280;59745;52.924;-2.388;2022-08-11T11:33:41;99999.73;;;39.68;14.89
71873;BME280;59745;52.924;-2.388;2022-08-11T11:36:08;100000.24;;;39.66;12.97
71873;BME280;59745;52.924;-2.388;2022-08-11T11:38:22;100003.06;;;39.30;13.29
71873;BME280;59745;52.924;-2.388;2022-08-11T11:40:48;99997.20;;;38.06;13.94
71873;BME280;59745;52.924;-2.388;2022-08-11T11:43:13;99996.59;;;38.48;14.43
71873;BME280;59745;52.924;-2.388;2022-08-11T11:45:40;99995.62;;;38.14;14.31
71873;BME280;59745;52.924;-2.388;2022-08-11T11:48:05;99993.63;;;38.21;14.89
71873;BME280;59745;52.924;-2.388;2022-08-11T11:50:33;99992.41;;;38.79;14.83
71873;BME280;59745;52.924;-2.388;2022-08-11T11:52:58;99988.20;;;38.99;15.15
71873;BME280;59745;52.924;-2.388;2022-08-11T11:55:23;99987.55;;;39.06;14.47
71873;BME280;59745;52.924;-2.388;2022-08-11T11:57:49;99981.68;;;39.29;14.21
71873;BME280;59745;52.924;-2.388;2022-08-11T12:00:14;99977.64;;;39.63;13.53
71873;BME280;59745;52.924;-2.388;2022-08-11T12:02:40;99971.65;;;39.75;13.44
71873;BME280;59745;52.924;-2.388;2022-08-11T12:05:07;99971.33;;;40.02;13.43
71873;BME280;59745;52.924;-2.388;2022-08-11T12:07:31;99967.07;;;40.05;13.10
71873;BME280;59745;52.924;-2.388;2022-08-11T12:09:57;99966.12;;;40.14;13.18
71873;BME280;59745;52.924;-2.388;2022-08-11T12:12:23;99968.90;;;39.65;13.11
71873;BME280;59745;52.924;-2.388;2022-08-11T12:14:49;99963.88;;;40.22;13.10
71873;BME280;59745;52.924;-2.388;2022-08-11T12:17:14;99966.55;;;40.27;13.35
71873;BME280;59745;52.924;-2.388;2022-08-11T12:19:40;99965.78;;;40.46;13.45
71873;BME280;59745;52.924;-2.388;2022-08-11T12:22:05;99966.90;;;40.50;13.27
71873;BME280;59745;52.924;-2.388;2022-08-11T12:24:34;99963.65;;;40.65;16.46
71873;BME280;59745;52.924;-2.388;2022-08-11T12:26:58;99959.17;;;40.59;14.97
71873;BME280;59745;52.924;-2.388;2022-08-11T12:29:23;99959.07;;;41.12;14.26
71873;BME280;59745;52.924;-2.388;2022-08-11T12:31:48;99958.23;;;41.01;13.32
71873;BME280;59745;52.924;-2.388;2022-08-11T12:34:15;99959.25;;;41.00;13.18
71873;BME280;59745;52.924;-2.388;2022-08-11T12:36:42;99962.29;;;39.27;13.02
71873;BME280;59745;52.924;-2.388;2022-08-11T12:39:09;99960.69;;;39.43;13.40
71873;BME280;59745;52.924;-2.388;2022-08-11T12:41:32;99960.11;;;39.73;13.46
71873;BME280;59745;52.924;-2.388;2022-08-11T12:43:59;99955.92;;;40.55;13.10
71873;BME280;59745;52.924;-2.388;2022-08-11T12:46:32;99954.56;;;40.45;14.09
71873;BME280;59745;52.924;-2.388;2022-08-11T12:48:54;99950.89;;;40.68;13.53
71873;BME280;59745;52.924;-2.388;2022-08-11T12:51:18;99948.92;;;40.69;12.35
71873;BME280;59745;52.924;-2.388;2022-08-11T12:53:45;99944.69;;;40.82;12.68
71873;BME280;59745;52.924;-2.388;2022-08-11T12:56:06;99944.82;;;40.36;12.18
71873;BME280;59745;52.924;-2.388;2022-08-11T12:58:32;99936.68;;;40.38;12.74
71873;BME280;59745;52.924;-2.388;2022-08-11T13:00:57;99934.03;;;39.73;12.01
71873;BME280;59745;52.924;-2.388;2022-08-11T13:03:23;99934.48;;;38.61;12.61
71873;BME280;59745;52.924;-2.388;2022-08-11T13:05:52;99932.07;;;38.21;13.55
71873;BME280;59745;52.924;-2.388;2022-08-11T13:08:15;99925.28;;;37.94;13.69
71873;BME280;59745;52.924;-2.388;2022-08-11T13:10:41;99919.18;;;38.53;14.19
71873;BME280;59745;52.924;-2.388;2022-08-11T13:13:07;99910.97;;;39.30;13.65
71873;BME280;59745;52.924;-2.388;2022-08-11T13:15:33;99908.48;;;38.35;12.89
71873;BME280;59745;52.924;-2.388;2022-08-11T13:17:58;99905.91;;;37.80;13.58
71873;BME280;59745;52.924;-2.388;2022-08-11T13:20:24;99904.93;;;38.45;14.68
71873;BME280;59745;52.924;-2.388;2022-08-11T13:22:52;99902.51;;;38.44;13.19
71873;BME280;59745;52.924;-2.388;2022-08-11T13:25:16;99898.83;;;38.94;13.34
71873;BME280;59745;52.924;-2.388;2022-08-11T13:27:41;99892.34;;;39.57;13.49